createdAt,value
2023-05-13T00:02:48.082Z,1011.79
2023-05-13T00:09:07.993Z,1011.77
2023-05-13T00:15:31.052Z,1011.75
2023-05-13T00:21:51.020Z,1011.71
2023-05-13T00:28:14.004Z,1011.67
2023-05-13T00:34:34.042Z,1011.67
2023-05-13T00:40:56.997Z,1011.67
2023-05-13T00:47:17.020Z,1011.69
2023-05-13T00:53:40.040Z,1011.75
2023-05-13T01:00:00.005Z,1011.75
2023-05-13T01:06:23.005Z,1011.73
2023-05-13T01:12:42.987Z,1011.71
2023-05-13T01:19:06.069Z,1011.75
2023-05-13T01:25:26.027Z,1011.73
2023-05-13T01:31:49.029Z,1011.71
2023-05-13T01:38:08.981Z,1011.75
2023-05-13T01:44:32.009Z,1011.77
2023-05-13T01:50:52.023Z,1011.79
2023-05-13T01:57:15.006Z,1011.79
2023-05-13T02:03:35.034Z,1011.83
2023-05-13T02:09:58.042Z,1011.83
2023-05-13T02:16:18.079Z,1011.77
2023-05-13T02:22:41.005Z,1011.77
2023-05-13T02:29:00.996Z,1011.75
2023-05-13T02:35:24.031Z,1011.71
2023-05-13T02:41:43.979Z,1011.73
2023-05-13T02:48:07.056Z,1011.69
2023-05-13T02:54:26.981Z,1011.73
2023-05-13T03:00:50.038Z,1011.73
2023-05-13T03:07:10.030Z,1011.83
2023-05-13T03:13:33.025Z,1011.83
2023-05-13T03:36:38.521Z,1011.79
2023-05-13T03:42:57.977Z,1011.79
2023-05-13T03:49:20.990Z,1011.79
2023-05-13T03:55:41.011Z,1011.75
2023-05-13T04:02:04.088Z,1011.73
2023-05-13T04:08:23.978Z,1011.77
2023-05-13T04:14:47.024Z,1011.73
2023-05-13T04:21:06.989Z,1011.71
2023-05-13T04:27:29.995Z,1011.67
2023-05-13T04:33:50.062Z,1011.67
2023-05-13T04:40:13.011Z,1011.79
2023-05-13T04:46:33.022Z,1011.89
2023-05-13T04:52:56.024Z,1011.98
2023-05-13T04:59:15.997Z,1012.02
2023-05-13T05:05:39.009Z,1012.1
2023-05-13T05:11:59.052Z,1012.12
2023-05-13T05:18:22.051Z,1012.14
2023-05-13T05:24:42.027Z,1012.2
2023-05-13T05:31:05.097Z,1012.24
2023-05-13T05:37:25.052Z,1012.32
2023-05-13T05:43:48.000Z,1012.42
2023-05-13T05:50:08.045Z,1012.43
2023-05-13T05:56:31.022Z,1012.49
2023-05-13T06:02:51.062Z,1012.47
2023-05-13T06:09:14.088Z,1012.47
2023-05-13T06:15:34.050Z,1012.49
2023-05-13T06:21:57.016Z,1012.51
2023-05-13T06:28:17.031Z,1012.53
2023-05-13T06:34:39.994Z,1012.59
2023-05-13T06:40:59.977Z,1012.65
2023-05-13T06:47:23.910Z,1012.69
2023-05-13T06:53:42.984Z,1012.69
2023-05-13T07:00:06.021Z,1012.69
2023-05-13T07:06:26.028Z,1012.71
2023-05-13T07:12:48.993Z,1012.69
2023-05-13T07:19:09.098Z,1012.71
2023-05-13T07:25:32.008Z,1012.67
2023-05-13T07:31:51.981Z,1012.67
2023-05-13T07:38:15.014Z,1012.65
2023-05-13T07:44:35.118Z,1012.63
2023-05-13T07:50:58.040Z,1012.63
2023-05-13T07:57:17.978Z,1012.65
2023-05-13T08:03:41.158Z,1012.61
2023-05-13T08:10:01.031Z,1012.61
2023-05-13T08:16:23.993Z,1012.55
2023-05-13T08:22:44.029Z,1012.53
2023-05-13T08:29:06.985Z,1012.53
2023-05-13T08:35:26.986Z,1012.55
2023-05-13T08:51:20.512Z,1012.55
2023-05-13T08:57:39.981Z,1012.53
2023-05-13T09:04:02.998Z,1012.47
2023-05-13T09:10:23.071Z,1012.45
2023-05-13T09:16:46.004Z,1012.43
2023-05-13T09:23:06.031Z,1012.38
2023-05-13T09:29:29.041Z,1012.34
2023-05-13T09:35:49.022Z,1012.3
2023-05-13T09:42:11.980Z,1012.2
2023-05-13T09:48:32.006Z,1012.16
2023-05-13T09:54:55.022Z,1012.1
2023-05-13T10:01:15.001Z,1012.04
2023-05-13T10:07:38.007Z,1011.95
2023-05-13T10:13:58.018Z,1011.91
2023-05-13T10:20:21.109Z,1011.81
2023-05-13T10:26:41.026Z,1011.79
2023-05-13T10:33:04.133Z,1011.69
2023-05-13T10:39:23.977Z,1011.63
2023-05-13T10:45:47.004Z,1011.59
2023-05-13T10:52:06.975Z,1011.59
2023-05-13T10:58:29.986Z,1011.63
2023-05-13T11:04:50.007Z,1011.73
2023-05-13T11:11:12.997Z,1012
2023-05-13T11:17:33.022Z,1012.32
2023-05-13T11:23:56.017Z,1012.42
2023-05-13T11:30:16.020Z,1012.53
2023-05-13T11:36:38.998Z,1012.53
2023-05-13T11:42:59.024Z,1012.36
2023-05-13T11:49:22.000Z,1012.06
2023-05-13T11:55:42.011Z,1012.06
2023-05-13T12:02:05.106Z,1012.12
2023-05-13T12:08:24.995Z,1012.22
2023-05-13T12:14:47.992Z,1012.36
2023-05-13T12:21:08.022Z,1012.36
2023-05-13T12:27:30.996Z,1012.4
2023-05-13T12:33:50.999Z,1012.42
2023-05-13T12:40:14.010Z,1012.43
2023-05-13T12:46:34.014Z,1012.42
2023-05-13T12:52:57.000Z,1012.45
2023-05-13T12:59:17.001Z,1012.53
2023-05-13T13:05:40.011Z,1012.53
2023-05-13T13:12:00.006Z,1012.3
2023-05-13T13:18:23.071Z,1012.2
2023-05-13T13:24:43.041Z,1012.32
2023-05-13T13:31:05.998Z,1012.22
2023-05-13T13:37:26.030Z,1012.2
2023-05-13T13:43:48.996Z,1012.28
2023-05-13T13:50:08.996Z,1012.22
2023-05-13T13:56:32.027Z,1012.3
2023-05-13T14:02:52.075Z,1012.32
2023-05-13T14:09:15.095Z,1012.47
2023-05-13T14:32:00.200Z,1012.08
2023-05-13T14:38:23.020Z,1011.95
2023-05-13T14:44:42.992Z,1011.85
2023-05-13T14:51:06.000Z,1011.81
2023-05-13T14:57:26.003Z,1011.83
2023-05-13T15:03:48.974Z,1011.93
2023-05-13T15:10:09.024Z,1012
2023-05-13T15:16:32.025Z,1012.02
2023-05-13T15:22:52.013Z,1012.12
2023-05-13T15:29:17.015Z,1012.1
2023-05-13T15:35:36.992Z,1012.12
2023-05-13T15:41:59.990Z,1012.12
2023-05-13T15:48:20.031Z,1012.16
2023-05-13T15:54:42.990Z,1011.79
2023-05-13T16:01:03.026Z,1011.61
2023-05-13T16:07:26.028Z,1011.51
2023-05-13T16:13:46.030Z,1011.51
2023-05-13T16:20:11.500Z,1011.48
2023-05-13T16:26:29.462Z,1011.53
2023-05-13T16:32:52.027Z,1011.53
2023-05-13T16:39:11.974Z,1011.53
2023-05-13T16:45:35.013Z,1011.57
2023-05-13T16:51:55.010Z,1011.57
2023-05-13T16:58:18.047Z,1011.57
2023-05-13T17:04:38.011Z,1011.53
2023-05-13T17:11:00.977Z,1011.51
2023-05-13T17:17:21.004Z,1011.46
2023-05-13T17:23:44.010Z,1011.42
2023-05-13T17:30:03.977Z,1011.38
2023-05-13T17:36:27.147Z,1011.34
2023-05-13T17:42:47.009Z,1011.32
2023-05-13T17:49:10.132Z,1011.32
2023-05-13T17:55:30.055Z,1011.32
2023-05-13T18:01:53.026Z,1011.3
2023-05-13T18:08:12.991Z,1011.26
2023-05-13T18:14:35.983Z,1011.22
2023-05-13T18:20:57.024Z,1011.26
2023-05-13T18:27:19.982Z,1011.3
2023-05-13T18:33:40.558Z,1011.38
2023-05-13T18:40:03.036Z,1011.44
2023-05-13T18:46:23.061Z,1011.42
2023-05-13T18:52:45.989Z,1011.4
2023-05-13T18:59:06.081Z,1011.44
2023-05-13T19:05:28.975Z,1011.48
2023-05-13T19:11:49.004Z,1011.49
2023-05-13T19:18:12.061Z,1011.51
2023-05-13T19:41:53.018Z,1011.69
2023-05-13T19:48:13.003Z,1011.69
2023-05-13T19:54:35.985Z,1011.75
2023-05-13T20:00:55.987Z,1011.73
2023-05-13T20:07:20.012Z,1011.79
2023-05-13T20:13:40.239Z,1011.85
2023-05-13T20:20:03.012Z,1011.89
2023-05-13T20:26:23.008Z,1011.91
2023-05-13T20:32:46.091Z,1011.95
2023-05-13T20:39:06.089Z,1011.95
2023-05-13T20:45:28.986Z,1011.96
2023-05-13T20:51:49.020Z,1011.95
2023-05-13T20:58:12.035Z,1011.93
2023-05-13T21:04:32.006Z,1011.98
2023-05-13T21:10:55.009Z,1011.96
2023-05-13T21:17:15.019Z,1011.96
2023-05-13T21:23:37.992Z,1012.02
2023-05-13T21:29:57.996Z,1012.06
2023-05-13T21:36:21.039Z,1012.1
2023-05-13T21:42:41.030Z,1012.02
2023-05-13T21:49:04.034Z,1011.98
2023-05-13T21:55:24.016Z,1011.98
2023-05-13T22:19:41.088Z,1012.06
2023-05-13T22:26:01.006Z,1012.02
2023-05-13T22:32:23.974Z,1011.98
2023-05-13T22:38:44.049Z,1011.95
2023-05-13T22:45:06.996Z,1011.91
2023-05-13T22:51:27.032Z,1011.95
2023-05-13T22:57:50.021Z,1011.95
2023-05-13T23:04:10.053Z,1011.93
2023-05-13T23:10:33.031Z,1011.91
2023-05-13T23:16:53.016Z,1011.89
2023-05-13T23:23:16.007Z,1011.85
2023-05-13T23:29:36.005Z,1011.83
2023-05-13T23:35:59.024Z,1011.81
2023-05-13T23:42:18.985Z,1011.75
2023-05-13T23:48:42.023Z,1011.75
2023-05-13T23:55:02.034Z,1011.69
